Nearby METAR Reports

 

KPTW - Pottstown, Pennsylvania, USA
Distance from station: NE 6mi, 10km
Updated: 07/15/2018 7:54pm
Clear
Clear
 Wind from SSW
Wind: SSW 3 mph , 6 km/h
Temperature: 79°F , 26°C
Dew Point: 68°F , 20°C
Humidity: 70%
Barometer: 30.00 inHg , 1015.9 hPa
Clouds: Clear
Visibility: 9 miles , 14 km
2018/07/15 23:54 KPTW 152354Z AUTO 20003KT 9SM CLR 26/20 A3000 RMK AO2 SLP153 T02610200 10278 20228 55000
KMQS - Coatesville, Pennsylvania, USA
Distance from station: SW 18mi, 29km
Updated: 07/15/2018 8:35pm
Clear
Clear
 Wind from calm
Wind: Calm
Temperature: 75°F , 24°C
Dew Point: 72°F , 22°C
Humidity: 89%
Barometer: 30.02 inHg , 1016.6 hPa
Clouds: Clear
Visibility: 10 miles , 16 km
2018/07/16 00:35 KMQS 160035Z AUTO 00000KT 10SM CLR 24/22 A3002 RMK AO2
 
KLOM - Philly Wings F, Pennsylvania, USA
Distance from station: E 19mi, 31km
Updated: 07/15/2018 8:35pm
Clear
Clear
 Wind from calm
Wind: Calm
Temperature: 75°F , 24°C
Dew Point: 72°F , 22°C
Humidity: 89%
Barometer: 29.99 inHg , 1015.6 hPa
Clouds: Clear
Visibility: 10 miles , 16 km
2018/07/16 00:35 KLOM 160035Z AUTO 00000KT 10SM CLR 24/22 A2999 RMK AO1
KRDG - Reading, Pennsylvania, USA
Distance from station: NW 22mi, 36km
Updated: 07/15/2018 7:54pm
Clear
Clear
 Wind from SW
Wind: SW 3 mph , 6 km/h
Temperature: 82°F , 28°C
Heat Index: 86°F , 30°C
Dew Point: 72°F , 22°C
Humidity: 70%
Barometer: 29.97 inHg , 1014.9 hPa
Clouds: Clear
Visibility: 10 miles , 16 km
2018/07/15 23:54 KRDG 152354Z 22003KT 10SM CLR 28/22 A2997 RMK AO2 SLP152 T02780217 10289 20256 53001
 
KUKT - Quakertown Arp, Pennsylvania, USA
Distance from station: NE 22mi, 36km
Updated: 07/15/2018 8:35pm
Clear
Clear
 Wind from calm
Wind: Calm
Temperature: 77°F , 25°C
Dew Point: 70°F , 21°C
Humidity: 79%
Barometer: 29.99 inHg , 1015.6 hPa
Clouds: Clear
Visibility: 10 miles , 16 km
2018/07/16 00:35 KUKT 160035Z AUTO 00000KT 10SM CLR 25/21 A2999 RMK A01
KXLL - Allentown Queen, Pennsylvania, USA
Distance from station: NNE 28mi, 46km
Updated: 07/15/2018 8:35pm
Clear
Clear
 Wind from SSW
Wind: SSW 3 mph , 6 km/h
Temperature: 79°F , 26°C
Dew Point: 68°F , 20°C
Humidity: 70%
Barometer: 29.99 inHg , 1015.6 hPa
Clouds: Clear
Visibility: 10 miles , 16 km
2018/07/16 00:35 KXLL 160035Z AUTO 21003KT 10SM CLR 26/20 A2999 RMK AO2
 
KDYL - Doylestown, Pennsylvania, USA
Distance from station: ENE 29mi, 47km
Updated: 07/15/2018 7:54pm
Clear
Clear
 Wind from WSW
Wind: WSW 5 mph , 7 km/h
Temperature: 81°F , 27°C
Heat Index: 85°F , 29°C
Dew Point: 70°F , 21°C
Humidity: 70%
Barometer: 29.97 inHg , 1014.9 hPa
Clouds: Clear
Visibility: 10 miles , 16 km
2018/07/15 23:54 KDYL 152354Z AUTO 24004KT 10SM CLR 27/21 A2997 RMK AO2 SLP143 T02670206 10294 20222 55000
KPHL - Philadelphia, Pennsylvania, USA
Distance from station: SE 30mi, 48km
Updated: 07/15/2018 7:54pm
Partly Cloudy
Partly Cloudy
 Wind from SW
Wind: SW 9 mph , 15 km/h
Temperature: 82°F , 28°C
Heat Index: 86°F , 30°C
Dew Point: 70°F , 21°C
Humidity: 66%
Barometer: 29.98 inHg , 1015.2 hPa
Clouds: Partly Cloudy
Visibility: 10 miles , 16 km
Cloud details: Few Clouds 13000 ft
Partly Cloudy 25000 ft
2018/07/15 23:54 KPHL 152354Z 23008KT 10SM FEW130 SCT250 28/21 A2998 RMK AO2 SLP151 T02780211 10283 20228 55001 $
 
KPNE - Philadelphia/Ne, Pennsylvania, USA
Distance from station: E 33mi, 53km
Updated: 07/15/2018 7:54pm
Clear
Clear
 Wind from W
Wind: W 7 mph , 11 km/h
Temperature: 84°F , 29°C
Heat Index: 88°F , 31°C
Dew Point: 70°F , 21°C
Humidity: 62%
Barometer: 29.98 inHg , 1015.2 hPa
Clouds: Clear
Visibility: 10 miles , 16 km
2018/07/15 23:54 KPNE 152354Z 27006KT 10SM CLR 29/21 A2998 RMK AO2 SLP151 T02890211 10311 20261 55000
KABE - Allentown, Pennsylvania, USA
Distance from station: NNE 34mi, 55km
Updated: 07/15/2018 7:51pm
Clear
Clear
 Wind from WSW
Wind: WSW 8 mph , 13 km/h
Temperature: 81°F , 27°C
Heat Index: 84°F , 29°C
Dew Point: 68°F , 20°C
Humidity: 66%
Barometer: 29.97 inHg , 1014.9 hPa
Clouds: Clear
Visibility: 10 miles , 16 km
2018/07/15 23:51 KABE 152351Z 24007KT 10SM CLR 27/20 A2997 RMK AO2 SLP145 T02720200 10300 20239 55000 $
 
KILG - Wilmington, Delaware, USA
Distance from station: S 35mi, 56km
Updated: 07/15/2018 7:51pm
Few Clouds
Few Clouds
 Wind from WSW
Wind: WSW 5 mph , 7 km/h
Temperature: 79°F , 26°C
Dew Point: 72°F , 22°C
Humidity: 79%
Barometer: 29.99 inHg , 1015.6 hPa
Clouds: Few Clouds
Visibility: 10 miles , 16 km
Cloud details: Few Clouds 12000 ft
2018/07/15 23:51 KILG 152351Z 24004KT 10SM FEW120 26/22 A2999 RMK AO2 SLP152 T02610217 10278 20228 55002
KLNS - Lancaster, Pennsylvania, USA
Distance from station: W 36mi, 57km
Updated: 07/15/2018 7:53pm
Clear
Clear
 Wind from calm
Wind: Calm
Temperature: 82°F , 28°C
Heat Index: 86°F , 30°C
Dew Point: 70°F , 21°C
Humidity: 66%
Barometer: 29.98 inHg , 1015.2 hPa
Clouds: Clear
Visibility: 10 miles , 16 km
2018/07/15 23:53 KLNS 152353Z 00000KT 10SM CLR 28/21 A2998 RMK AO2 SLP150 T02830211 10294 20244 55001
 
KTTN - Trenton, New Jersey, USA
Distance from station: E 44mi, 70km
Updated: 07/15/2018 7:53pm
Clear
Clear
 Wind from WSW
Wind: WSW 3 mph , 6 km/h
Temperature: 81°F , 27°C
Heat Index: 85°F , 29°C
Dew Point: 70°F , 21°C
Humidity: 70%
Barometer: 29.96 inHg , 1014.6 hPa
Clouds: Clear
Visibility: 10 miles , 16 km
2018/07/15 23:53 KTTN 152353Z 24003KT 10SM CLR 27/21 A2996 RMK AO2 SLP139 60000 T02720206 10294 20228 55000
KVAY - Mount Holly, New Jersey, USA
Distance from station: ESE 45mi, 73km
Updated: 07/15/2018 7:54pm
Clear
Clear
 Wind from WSW
Wind: WSW 3 mph , 6 km/h
Barometer: 29.96 inHg , 1014.6 hPa
Clouds: Clear
Visibility: 10 miles , 16 km
2018/07/15 23:54 KVAY 152354Z AUTO 24003KT 10SM CLR A2996 RMK AO2 SLPNO 56003 $
 
KMUI - Muir Aaf/Indiant, Pennsylvania, USA
Distance from station: WNW 52mi, 84km
Updated: 07/15/2018 7:56pm
Few Clouds
Few Clouds
 Wind from calm
Wind: Calm
Temperature: 79°F , 26°C
Dew Point: 73°F , 23°C
Humidity: 84%
Barometer: 29.98 inHg , 1015.2 hPa
Clouds: Few Clouds
Visibility: 10 miles , 16 km
Cloud details: Few Clouds 13000 ft
2018/07/15 23:56 KMUI 152356Z AUTO 00000KT 10SM FEW130 26/23 A2998 RMK AO2 SLP152 T02580225 10288 20251 55000 $
KAPG - Aberdeen/Phillip, Maryland, USA
Distance from station: SSW 56mi, 91km
Updated: 07/13/2018 7:52pm
NOT Current
Mostly Cloudy
Mostly Cloudy
 Wind from SW
Wind: SW 5 mph , 7 km/h
Temperature: 79°F , 26°C
Dew Point: 64°F , 18°C
Humidity: 61%
Barometer: 30.18 inHg , 1022 hPa
Clouds: Mostly Cloudy
Visibility: 10 miles , 16 km
Cloud details: Mostly Cloudy 20000 ft
2018/07/13 23:52 KAPG 132352Z 23004KT 10SM BKN200 26/18 A3018 RMK SLP223 55007
 
KWRI - Wrightst/Mcguire, New Jersey, USA
Distance from station: E 56mi, 91km
Updated: 07/15/2018 7:56pm
Clear
Clear
 Wind from SW
Wind: SW 6 mph , 9 km/h
Temperature: 79°F , 26°C
Dew Point: 72°F , 22°C
Humidity: 79%
Barometer: 29.95 inHg , 1014.2 hPa
Clouds: Clear
Visibility: 10 miles , 16 km
2018/07/15 23:56 KWRI 152356Z AUTO 23005KT 10SM CLR 26/22 A2995 RMK AO2 SLP141 60000 T02630219 10290 20232 55001 $
KSMQ - Somerville, New Jersey, USA
Distance from station: ENE 59mi, 96km
Updated: 07/15/2018 7:53pm
Clear
Clear
 Wind from calm
Wind: Calm
Temperature: 79°F , 26°C
Dew Point: 72°F , 22°C
Humidity: 79%
Barometer: 29.94 inHg , 1013.9 hPa
Clouds: Clear
Visibility: 10 miles , 16 km
2018/07/15 23:53 KSMQ 152353Z AUTO 00000KT 10SM CLR 26/22 A2994 RMK AO2 SLP138 T02560222 10289 20233 53000
 
KMDT - Middletown, Pennsylvania, USA
Distance from station: W 60mi, 97km
Updated: 07/15/2018 7:56pm
Mostly Cloudy
Mostly Cloudy
 Wind from SW
Wind: SW 7 mph , 11 km/h
Temperature: 81°F , 27°C
Heat Index: 85°F , 29°C
Dew Point: 72°F , 22°C
Humidity: 74%
Barometer: 29.97 inHg , 1014.9 hPa
Clouds: Mostly Cloudy
Visibility: 10 miles , 16 km
Cloud details: Few Clouds 5000 ft
Mostly Cloudy 11000 ft
2018/07/15 23:56 KMDT 152356Z 22006KT 10SM FEW050 BKN110 27/22 A2997 RMK AO2 SLP146 T02720217 10300 20261 55003
KMIV - Millville, New Jersey, USA
Distance from station: SSE 63mi, 101km
Updated: 07/15/2018 7:54pm
Clear
Clear
 Wind from calm
Wind: Calm
Temperature: 79°F , 26°C
Dew Point: 70°F , 21°C
Humidity: 74%
Barometer: 29.98 inHg , 1015.2 hPa
Clouds: Clear
Visibility: 10 miles , 16 km
2018/07/15 23:54 KMIV 152354Z AUTO 00000KT 10SM CLR 26/21 A2998 RMK AO2 SLP150 60000 T02610211 10289 20250 55000